createdAt,value
2018-07-31T00:00:32.829Z,25.37
2018-07-31T00:03:01.179Z,25.32
2018-07-31T00:05:29.491Z,25.32
2018-07-31T00:07:57.838Z,25.28
2018-07-31T00:10:26.236Z,25.28
2018-07-31T00:12:54.525Z,25.19
2018-07-31T00:15:22.855Z,25.17
2018-07-31T00:17:51.219Z,25.19
2018-07-31T00:20:19.560Z,25.19
2018-07-31T00:22:47.904Z,25.14
2018-07-31T00:25:16.216Z,25.16
2018-07-31T00:27:44.532Z,25.08
2018-07-31T00:30:12.938Z,25.01
2018-07-31T00:32:41.271Z,25.03
2018-07-31T00:35:09.580Z,24.97
2018-07-31T00:37:37.905Z,24.99
2018-07-31T00:40:06.252Z,24.93
2018-07-31T00:42:34.596Z,24.91
2018-07-31T00:45:02.942Z,24.87
2018-07-31T00:47:32.020Z,24.83
2018-07-31T00:50:00.343Z,24.82
2018-07-31T00:52:28.784Z,24.74
2018-07-31T00:54:57.140Z,24.74
2018-07-31T00:57:25.471Z,24.72
2018-07-31T00:59:53.797Z,24.73
2018-07-31T01:02:22.137Z,24.70
2018-07-31T01:04:50.451Z,24.69
2018-07-31T01:07:18.828Z,24.67
2018-07-31T01:09:47.157Z,24.66
2018-07-31T01:12:15.488Z,24.55
2018-07-31T01:14:43.826Z,24.59
2018-07-31T01:17:12.206Z,24.57
2018-07-31T01:19:40.660Z,24.55
2018-07-31T01:22:09.000Z,24.53
2018-07-31T01:24:37.371Z,24.53
2018-07-31T01:27:05.691Z,24.49
2018-07-31T01:29:34.000Z,24.43
2018-07-31T01:32:02.346Z,24.47
2018-07-31T01:34:30.649Z,24.47
2018-07-31T01:36:58.959Z,24.47
2018-07-31T01:39:27.278Z,24.42
2018-07-31T01:41:55.583Z,24.46
2018-07-31T01:44:23.915Z,24.44
2018-07-31T01:46:52.294Z,24.43
2018-07-31T01:49:20.628Z,24.32
2018-07-31T01:51:48.937Z,24.33
2018-07-31T01:54:17.276Z,24.27
2018-07-31T01:56:45.606Z,24.27
2018-07-31T01:59:13.960Z,24.23
2018-07-31T02:01:42.384Z,24.24
2018-07-31T02:04:10.720Z,24.20
2018-07-31T02:06:39.068Z,24.16
2018-07-31T02:09:08.203Z,24.13
2018-07-31T02:11:36.544Z,24.03
2018-07-31T02:14:04.995Z,24.10
2018-07-31T02:16:33.313Z,24.10
2018-07-31T02:19:01.636Z,24.05
2018-07-31T02:21:29.972Z,24.00
2018-07-31T02:23:58.340Z,24.04
2018-07-31T02:26:26.686Z,24.05
2018-07-31T02:28:55.009Z,24.00
2018-07-31T02:31:23.344Z,23.96
2018-07-31T02:33:51.714Z,23.97
2018-07-31T02:36:20.072Z,23.97
2018-07-31T02:38:48.400Z,23.98
2018-07-31T02:41:16.780Z,24.01
2018-07-31T02:43:45.106Z,24.02
2018-07-31T02:46:13.443Z,23.95
2018-07-31T02:48:41.790Z,23.99
2018-07-31T02:51:10.122Z,23.98
2018-07-31T02:53:38.475Z,23.97
2018-07-31T02:56:06.823Z,23.95
2018-07-31T02:58:35.161Z,23.95
2018-07-31T03:01:03.494Z,23.93
2018-07-31T03:03:31.884Z,23.88
2018-07-31T03:06:00.207Z,23.83
2018-07-31T03:08:28.543Z,23.70
2018-07-31T03:10:56.875Z,23.69
2018-07-31T03:13:25.199Z,23.65
2018-07-31T03:15:53.579Z,23.70
2018-07-31T03:18:21.910Z,23.62
2018-07-31T03:20:50.227Z,23.59
2018-07-31T03:23:18.581Z,23.54
2018-07-31T03:25:46.895Z,23.54
2018-07-31T03:28:15.264Z,23.50
2018-07-31T03:30:43.583Z,23.48
2018-07-31T03:33:11.897Z,23.51
2018-07-31T03:35:40.270Z,23.48
2018-07-31T03:38:08.616Z,23.49
2018-07-31T03:40:37.013Z,23.50
2018-07-31T03:43:05.336Z,23.46
2018-07-31T03:45:33.724Z,23.42
2018-07-31T03:48:02.101Z,23.50
2018-07-31T03:50:30.445Z,23.50
2018-07-31T03:52:58.775Z,23.48
2018-07-31T03:55:27.174Z,23.49
2018-07-31T03:57:55.482Z,23.43
2018-07-31T04:00:23.816Z,23.43
2018-07-31T04:02:52.161Z,23.40
2018-07-31T04:05:20.540Z,23.39
2018-07-31T04:07:48.844Z,23.42
2018-07-31T04:10:17.192Z,23.40
2018-07-31T04:12:45.520Z,23.45
2018-07-31T04:15:13.840Z,23.46
2018-07-31T04:17:46.332Z,23.44
2018-07-31T04:20:14.855Z,23.39
2018-07-31T04:22:43.218Z,23.37
2018-07-31T04:25:11.576Z,23.38
2018-07-31T04:27:39.920Z,23.46
2018-07-31T04:30:08.260Z,23.45
2018-07-31T04:32:36.595Z,23.49
2018-07-31T04:35:05.058Z,23.48
2018-07-31T04:37:33.364Z,23.46
2018-07-31T04:40:01.683Z,23.49
2018-07-31T04:42:30.017Z,23.54
2018-07-31T04:44:58.353Z,23.57
2018-07-31T04:47:26.683Z,23.54
2018-07-31T04:49:55.008Z,23.60
2018-07-31T04:52:23.402Z,23.63
2018-07-31T04:54:51.730Z,23.67
2018-07-31T04:57:20.066Z,23.68
2018-07-31T04:59:48.452Z,23.70
2018-07-31T05:02:16.784Z,23.79
2018-07-31T05:04:45.103Z,23.85
2018-07-31T05:07:13.405Z,23.90
2018-07-31T05:09:41.750Z,23.96
2018-07-31T05:12:10.080Z,24.02
2018-07-31T05:14:38.391Z,24.02
2018-07-31T05:17:06.731Z,24.10
2018-07-31T05:19:35.060Z,24.18
2018-07-31T05:22:03.440Z,24.24
2018-07-31T05:24:31.752Z,24.32
2018-07-31T05:27:00.083Z,24.36
2018-07-31T05:29:28.403Z,24.44
2018-07-31T05:31:56.720Z,24.56
2018-07-31T05:34:25.110Z,24.57
2018-07-31T05:36:53.636Z,24.69
2018-07-31T05:39:21.976Z,24.76
2018-07-31T05:41:50.290Z,24.84
2018-07-31T05:44:18.628Z,24.97
2018-07-31T05:46:46.947Z,25.01
2018-07-31T05:49:15.276Z,25.15
2018-07-31T05:51:43.647Z,25.28
2018-07-31T05:54:11.978Z,25.34
2018-07-31T05:56:40.312Z,25.45
2018-07-31T05:59:08.642Z,25.56
2018-07-31T06:01:36.967Z,25.64
2018-07-31T06:04:05.324Z,25.74
2018-07-31T06:06:33.647Z,25.89
2018-07-31T06:09:01.974Z,25.99
2018-07-31T06:11:30.300Z,26.09
2018-07-31T06:13:58.636Z,26.25
2018-07-31T06:16:26.995Z,26.33
2018-07-31T06:18:55.339Z,26.54
2018-07-31T06:21:23.665Z,26.69
2018-07-31T06:23:52.016Z,26.84
2018-07-31T06:26:20.361Z,27.00
2018-07-31T06:28:48.721Z,27.18
2018-07-31T06:31:17.067Z,27.41
2018-07-31T06:33:45.411Z,27.67
2018-07-31T06:36:13.760Z,27.95
2018-07-31T06:38:42.110Z,28.30
2018-07-31T06:41:10.446Z,28.66
2018-07-31T06:43:38.789Z,28.85
2018-07-31T06:46:07.949Z,29.02
2018-07-31T06:48:36.291Z,29.37
2018-07-31T06:51:04.618Z,29.79
2018-07-31T06:53:32.951Z,29.92
2018-07-31T06:56:01.286Z,30.43
2018-07-31T06:58:29.652Z,30.65
2018-07-31T07:00:57.985Z,31.07
2018-07-31T07:03:26.718Z,31.60
2018-07-31T07:05:55.669Z,31.63
2018-07-31T07:08:23.989Z,31.82
2018-07-31T07:10:52.311Z,32.12
2018-07-31T07:13:20.714Z,32.57
2018-07-31T07:15:49.101Z,32.29
2018-07-31T07:18:17.439Z,32.86
2018-07-31T07:20:45.780Z,33.50
2018-07-31T07:23:14.114Z,33.04
2018-07-31T07:25:42.648Z,33.48
2018-07-31T07:28:11.050Z,33.86
2018-07-31T07:30:39.374Z,34.23
2018-07-31T07:33:07.705Z,34.73
2018-07-31T07:35:36.213Z,35.11
2018-07-31T07:38:04.534Z,35.73
2018-07-31T07:40:32.850Z,36.14
2018-07-31T07:43:01.168Z,37.08
2018-07-31T07:45:29.508Z,38.09
2018-07-31T07:47:57.845Z,38.33
2018-07-31T07:50:26.181Z,38.79
2018-07-31T07:52:54.607Z,38.35
2018-07-31T07:55:22.952Z,38.95
2018-07-31T07:57:51.301Z,38.30
2018-07-31T08:00:19.662Z,40.01
2018-07-31T08:02:48.003Z,38.98
2018-07-31T08:05:16.339Z,40.13
2018-07-31T08:07:44.670Z,39.95
2018-07-31T08:10:13.011Z,41.72
2018-07-31T08:12:41.387Z,40.55
2018-07-31T08:15:09.709Z,39.96
2018-07-31T08:17:38.050Z,41.28
2018-07-31T08:20:06.920Z,40.58
2018-07-31T08:22:35.312Z,42.10
2018-07-31T08:25:03.656Z,41.42
2018-07-31T08:27:31.966Z,41.57
2018-07-31T08:30:00.317Z,41.05
2018-07-31T08:32:28.680Z,41.35
2018-07-31T08:34:57.003Z,41.43
2018-07-31T08:37:25.325Z,41.24
2018-07-31T08:39:53.690Z,41.21
2018-07-31T08:42:22.037Z,41.28
2018-07-31T08:44:50.356Z,41.86
2018-07-31T08:47:18.675Z,41.19
2018-07-31T08:49:47.013Z,41.90
2018-07-31T08:52:15.561Z,41.15
2018-07-31T08:54:43.889Z,41.09
2018-07-31T08:57:12.240Z,42.56
2018-07-31T08:59:40.572Z,43.89
2018-07-31T09:02:08.903Z,42.29
2018-07-31T09:04:37.284Z,43.03
2018-07-31T09:07:05.624Z,43.95
2018-07-31T09:09:33.997Z,44.20
2018-07-31T09:12:02.298Z,43.21
2018-07-31T09:14:30.605Z,43.80
2018-07-31T09:16:58.906Z,44.13
2018-07-31T09:19:27.263Z,43.82
2018-07-31T09:21:55.589Z,44.49
2018-07-31T09:24:23.896Z,44.53
2018-07-31T09:26:52.216Z,44.43
2018-07-31T09:29:20.560Z,43.59
2018-07-31T09:31:48.882Z,44.27
2018-07-31T09:34:17.195Z,43.90
2018-07-31T09:36:45.486Z,44.81
2018-07-31T09:39:13.819Z,45.43
2018-07-31T09:41:42.131Z,44.64
2018-07-31T09:44:10.574Z,45.73
2018-07-31T09:46:38.894Z,45.05
2018-07-31T09:49:07.231Z,44.98
2018-07-31T09:51:35.537Z,47.43
2018-07-31T09:54:03.901Z,46.78
2018-07-31T09:56:32.202Z,44.98
2018-07-31T09:59:00.566Z,46.26
2018-07-31T10:01:28.870Z,46.84
2018-07-31T10:03:57.234Z,45.56
2018-07-31T10:06:25.536Z,46.27
2018-07-31T10:08:53.870Z,46.87
2018-07-31T10:11:22.187Z,48.62
2018-07-31T10:13:50.626Z,47.13
2018-07-31T10:16:18.960Z,48.29
2018-07-31T10:18:47.306Z,46.56
2018-07-31T10:21:15.662Z,47.60
2018-07-31T10:23:43.975Z,47.20
2018-07-31T10:26:12.295Z,47.38
2018-07-31T10:28:40.616Z,46.83
2018-07-31T10:31:08.922Z,47.83
2018-07-31T10:33:37.249Z,47.77
2018-07-31T10:36:05.630Z,47.78
2018-07-31T10:38:33.954Z,48.05
2018-07-31T10:41:02.283Z,47.97
2018-07-31T10:43:30.586Z,49.42
2018-07-31T10:45:58.902Z,47.26
2018-07-31T10:48:27.241Z,45.70
2018-07-31T10:50:55.597Z,44.94
2018-07-31T10:53:25.318Z,44.15
2018-07-31T10:55:53.654Z,43.10
2018-07-31T10:58:22.415Z,40.88
2018-07-31T11:00:50.755Z,40.41
2018-07-31T11:03:19.062Z,39.59
2018-07-31T11:05:47.358Z,40.00
2018-07-31T11:08:15.750Z,39.42
2018-07-31T11:10:44.100Z,38.80
2018-07-31T11:13:12.456Z,38.22
2018-07-31T11:15:41.034Z,37.86
2018-07-31T11:18:09.407Z,37.46
2018-07-31T11:20:37.738Z,36.79
2018-07-31T11:23:06.127Z,37.01
2018-07-31T11:25:34.476Z,36.38
2018-07-31T11:28:02.831Z,36.64
2018-07-31T11:30:31.149Z,36.50
2018-07-31T11:32:59.542Z,36.28
2018-07-31T11:35:27.919Z,36.04
2018-07-31T11:37:56.255Z,35.73
2018-07-31T11:40:24.585Z,35.80
2018-07-31T11:42:52.924Z,35.70
2018-07-31T11:45:21.263Z,35.38
2018-07-31T11:47:49.577Z,35.46
2018-07-31T11:50:17.921Z,35.45
2018-07-31T11:52:46.265Z,35.35
2018-07-31T11:55:14.615Z,35.30
2018-07-31T11:57:42.936Z,35.24
2018-07-31T12:00:12.594Z,35.13
2018-07-31T12:02:41.075Z,35.08
2018-07-31T12:05:09.423Z,35.05
2018-07-31T12:07:38.652Z,35.03
2018-07-31T12:10:07.032Z,35.11
2018-07-31T12:12:35.409Z,35.01
2018-07-31T12:15:03.771Z,35.04
2018-07-31T12:17:32.107Z,34.96
2018-07-31T12:20:00.431Z,34.85
2018-07-31T12:22:28.790Z,34.78
2018-07-31T12:24:57.108Z,34.89
2018-07-31T12:27:25.448Z,34.88
2018-07-31T12:29:53.783Z,34.63
2018-07-31T12:32:22.105Z,34.72
2018-07-31T12:34:50.419Z,34.76
2018-07-31T12:37:18.766Z,34.69
2018-07-31T12:39:47.084Z,34.71
2018-07-31T12:42:15.439Z,34.72
2018-07-31T12:44:43.798Z,34.75
2018-07-31T12:47:12.104Z,34.71
2018-07-31T12:49:40.450Z,34.66
2018-07-31T12:52:08.844Z,34.66
2018-07-31T12:54:37.160Z,34.68
2018-07-31T12:57:05.643Z,34.62
2018-07-31T12:59:33.968Z,34.70
2018-07-31T13:02:02.312Z,34.66
2018-07-31T13:04:30.650Z,34.65
2018-07-31T13:06:59.001Z,34.53
2018-07-31T13:09:27.365Z,34.57
2018-07-31T13:11:55.685Z,34.56
2018-07-31T13:14:24.027Z,34.52
2018-07-31T13:16:52.360Z,34.54
2018-07-31T13:19:20.713Z,34.52
2018-07-31T13:21:49.057Z,34.51
2018-07-31T13:24:17.386Z,34.54
2018-07-31T13:26:45.726Z,34.55
2018-07-31T13:29:14.031Z,34.47
2018-07-31T13:31:42.389Z,34.44
2018-07-31T13:34:10.744Z,34.42
2018-07-31T13:36:39.140Z,34.43
2018-07-31T13:39:09.199Z,34.44
2018-07-31T13:41:37.507Z,34.43
2018-07-31T13:44:06.169Z,34.42
2018-07-31T13:46:34.467Z,34.46
2018-07-31T13:49:02.844Z,34.33
2018-07-31T13:51:31.224Z,34.31
2018-07-31T13:53:59.568Z,34.27
2018-07-31T13:56:28.248Z,34.27
2018-07-31T13:58:56.633Z,34.28
2018-07-31T14:01:24.985Z,34.29
2018-07-31T14:03:53.330Z,34.27
2018-07-31T14:06:21.708Z,34.32
2018-07-31T14:08:50.059Z,34.38
2018-07-31T14:11:18.391Z,34.30
2018-07-31T14:13:46.779Z,34.25
2018-07-31T14:16:15.098Z,34.25
2018-07-31T14:18:43.432Z,34.36
2018-07-31T14:21:11.800Z,34.36
2018-07-31T14:23:40.131Z,34.34
2018-07-31T14:26:08.516Z,34.44
2018-07-31T14:28:36.839Z,34.41
2018-07-31T14:31:05.171Z,34.43
2018-07-31T14:33:33.522Z,34.47
2018-07-31T14:36:01.827Z,34.43
2018-07-31T14:38:30.174Z,34.47
2018-07-31T14:40:58.526Z,34.45
2018-07-31T14:43:26.877Z,34.42
2018-07-31T14:45:55.214Z,34.38
2018-07-31T14:48:23.650Z,34.35
2018-07-31T14:50:51.989Z,34.37
2018-07-31T14:53:20.465Z,34.35
2018-07-31T14:55:48.873Z,34.35
2018-07-31T14:58:17.209Z,34.40
2018-07-31T15:00:45.529Z,34.48
2018-07-31T15:03:13.838Z,34.44
2018-07-31T15:05:42.188Z,34.46
2018-07-31T15:08:10.502Z,34.44
2018-07-31T15:10:38.843Z,34.38
2018-07-31T15:13:07.190Z,34.38
2018-07-31T15:15:35.529Z,34.44
2018-07-31T15:18:03.859Z,34.34
2018-07-31T15:20:32.238Z,34.35
2018-07-31T15:23:00.569Z,34.34
2018-07-31T15:25:28.908Z,34.35
2018-07-31T15:27:57.250Z,34.29
2018-07-31T15:30:25.621Z,34.32
2018-07-31T15:32:53.977Z,34.28
2018-07-31T15:35:22.376Z,34.24
2018-07-31T15:37:50.700Z,34.27
2018-07-31T15:40:19.063Z,34.23
2018-07-31T15:42:47.515Z,34.25
2018-07-31T15:45:15.855Z,34.24
2018-07-31T15:47:44.274Z,34.21
2018-07-31T15:50:12.629Z,34.24
2018-07-31T15:52:41.005Z,34.34
2018-07-31T15:55:09.389Z,34.27
2018-07-31T15:57:37.766Z,34.22
2018-07-31T16:00:08.522Z,34.22
2018-07-31T16:02:37.128Z,34.21
2018-07-31T16:05:05.642Z,34.28
2018-07-31T16:07:33.973Z,34.27
2018-07-31T16:10:02.324Z,34.18
2018-07-31T16:12:30.655Z,34.14
2018-07-31T16:14:59.037Z,34.10
2018-07-31T16:17:27.385Z,34.14
2018-07-31T16:19:55.841Z,34.23
2018-07-31T16:22:24.757Z,34.16
2018-07-31T16:24:53.105Z,34.11
2018-07-31T16:27:21.440Z,34.08
2018-07-31T16:29:49.843Z,34.08
2018-07-31T16:32:18.246Z,34.08
2018-07-31T16:34:46.629Z,34.04
2018-07-31T16:37:15.003Z,34.06
2018-07-31T16:39:43.431Z,34.03
2018-07-31T16:42:11.813Z,33.98
2018-07-31T16:44:40.239Z,34.02
2018-07-31T16:47:08.618Z,33.99
2018-07-31T16:49:37.005Z,33.97
2018-07-31T16:52:05.335Z,33.95
2018-07-31T16:54:33.783Z,33.97
2018-07-31T16:57:02.277Z,33.95
2018-07-31T16:59:30.604Z,33.92
2018-07-31T17:01:58.951Z,33.91
2018-07-31T17:04:27.318Z,33.91
2018-07-31T17:06:55.696Z,33.89
2018-07-31T17:09:24.037Z,33.92
2018-07-31T17:11:52.500Z,33.92
2018-07-31T17:14:20.964Z,33.86
2018-07-31T17:16:49.375Z,33.87
2018-07-31T17:19:17.751Z,33.87
2018-07-31T17:21:46.800Z,33.82
2018-07-31T17:24:15.162Z,33.82
2018-07-31T17:26:43.541Z,33.80
2018-07-31T17:29:11.948Z,33.78
2018-07-31T17:31:40.307Z,33.76
2018-07-31T17:34:08.733Z,33.73
2018-07-31T17:36:37.121Z,33.76
2018-07-31T17:39:08.104Z,33.69
2018-07-31T17:41:36.479Z,33.68
2018-07-31T17:44:04.873Z,33.59
2018-07-31T17:46:33.344Z,33.54
2018-07-31T17:49:01.678Z,33.56
2018-07-31T17:51:30.047Z,33.49
2018-07-31T17:53:58.438Z,33.47
2018-07-31T17:56:26.841Z,33.41
2018-07-31T17:58:55.226Z,33.41
2018-07-31T18:01:23.593Z,33.37
2018-07-31T18:03:51.974Z,33.30
2018-07-31T18:06:20.371Z,33.27
2018-07-31T18:08:48.715Z,33.22
2018-07-31T18:11:17.048Z,33.18
2018-07-31T18:13:45.385Z,33.13
2018-07-31T18:16:13.735Z,33.05
2018-07-31T18:18:42.127Z,33.01
2018-07-31T18:21:10.440Z,32.98
2018-07-31T18:23:38.868Z,32.97
2018-07-31T18:26:07.168Z,32.89
2018-07-31T18:28:35.561Z,32.85
2018-07-31T18:31:03.937Z,32.83
2018-07-31T18:33:32.326Z,32.78
2018-07-31T18:36:00.704Z,32.73
2018-07-31T18:38:29.064Z,32.71
2018-07-31T18:40:57.436Z,32.61
2018-07-31T18:43:25.795Z,32.60
2018-07-31T18:45:54.154Z,32.55
2018-07-31T18:48:22.516Z,32.48
2018-07-31T18:50:50.854Z,32.45
2018-07-31T18:53:19.342Z,32.39
2018-07-31T18:55:47.650Z,32.36
2018-07-31T18:58:16.029Z,32.30
2018-07-31T19:00:44.369Z,32.28
2018-07-31T19:03:12.716Z,32.23
2018-07-31T19:05:41.053Z,32.19
2018-07-31T19:08:09.432Z,32.17
2018-07-31T19:10:37.782Z,32.14
2018-07-31T19:13:06.287Z,32.09
2018-07-31T19:15:34.642Z,32.04
2018-07-31T19:18:02.991Z,32.01
2018-07-31T19:20:31.332Z,31.94
2018-07-31T19:22:59.717Z,31.93
2018-07-31T19:25:28.132Z,31.90
2018-07-31T19:27:56.535Z,31.85
2018-07-31T19:30:24.887Z,31.78
2018-07-31T19:32:53.242Z,31.74
2018-07-31T19:35:21.594Z,31.71
2018-07-31T19:37:49.920Z,31.66
2018-07-31T19:40:18.300Z,31.62
2018-07-31T19:42:46.841Z,31.58
2018-07-31T19:45:15.189Z,31.45
2018-07-31T19:47:43.541Z,31.47
2018-07-31T19:50:11.888Z,31.43
2018-07-31T19:52:40.778Z,31.34
2018-07-31T19:55:09.152Z,31.32
2018-07-31T19:57:37.514Z,31.23
2018-07-31T20:00:06.254Z,31.20
2018-07-31T20:02:34.661Z,31.17
2018-07-31T20:05:03.056Z,31.13
2018-07-31T20:07:31.397Z,31.07
2018-07-31T20:09:59.768Z,31.04
2018-07-31T20:12:28.108Z,30.96
2018-07-31T20:14:56.499Z,30.87
2018-07-31T20:17:24.864Z,30.82
2018-07-31T20:19:53.283Z,30.78
2018-07-31T20:22:21.648Z,30.74
2018-07-31T20:24:50.311Z,30.68
2018-07-31T20:27:18.658Z,30.63
2018-07-31T20:29:47.008Z,30.59
2018-07-31T20:32:15.413Z,30.61
2018-07-31T20:34:43.800Z,30.53
2018-07-31T20:37:12.173Z,30.47
2018-07-31T20:39:40.511Z,30.46
2018-07-31T20:42:08.857Z,30.39
2018-07-31T20:44:37.207Z,30.40
2018-07-31T20:47:05.579Z,30.32
2018-07-31T20:49:33.911Z,30.28
2018-07-31T20:52:02.289Z,30.28
2018-07-31T20:54:30.671Z,30.23
2018-07-31T20:56:59.015Z,30.21
2018-07-31T20:59:27.407Z,30.17
2018-07-31T21:01:55.784Z,30.16
2018-07-31T21:04:24.991Z,30.11
2018-07-31T21:06:53.320Z,30.07
2018-07-31T21:09:22.152Z,30.05
2018-07-31T21:11:51.615Z,29.98
2018-07-31T21:14:20.436Z,29.94
2018-07-31T21:16:48.835Z,29.90
2018-07-31T21:19:17.189Z,29.90
2018-07-31T21:21:45.524Z,29.86
2018-07-31T21:24:13.984Z,29.82
2018-07-31T21:26:42.323Z,29.78
2018-07-31T21:29:10.745Z,29.73
2018-07-31T21:31:39.082Z,29.73
2018-07-31T21:34:07.398Z,29.68
2018-07-31T21:36:35.723Z,29.65
2018-07-31T21:39:06.136Z,29.59
2018-07-31T21:41:34.509Z,29.57
2018-07-31T21:44:02.860Z,29.57
2018-07-31T21:46:31.192Z,29.52
2018-07-31T21:48:59.532Z,29.49
2018-07-31T21:51:27.871Z,29.48
2018-07-31T21:53:56.215Z,29.43
2018-07-31T21:56:24.536Z,29.39
2018-07-31T21:58:52.904Z,29.36
2018-07-31T22:01:21.249Z,29.38
2018-07-31T22:03:49.636Z,29.35
2018-07-31T22:06:18.010Z,29.30
2018-07-31T22:08:46.344Z,29.23
2018-07-31T22:11:14.703Z,29.20
2018-07-31T22:13:43.051Z,29.19
2018-07-31T22:16:11.421Z,29.18
2018-07-31T22:18:39.860Z,29.10
2018-07-31T22:21:08.215Z,29.12
2018-07-31T22:23:36.572Z,29.07
2018-07-31T22:26:04.962Z,29.01
2018-07-31T22:28:33.352Z,28.99
2018-07-31T22:31:01.772Z,28.96
2018-07-31T22:33:30.151Z,28.97
2018-07-31T22:35:58.496Z,28.89
2018-07-31T22:38:26.837Z,28.85
2018-07-31T22:40:55.230Z,28.82
2018-07-31T22:43:23.564Z,28.74
2018-07-31T22:45:51.940Z,28.71
2018-07-31T22:48:20.278Z,28.64
2018-07-31T22:50:48.596Z,28.59
2018-07-31T22:53:16.930Z,28.60
2018-07-31T22:55:46.031Z,28.57
2018-07-31T22:58:14.385Z,28.55
2018-07-31T23:00:42.730Z,28.52
2018-07-31T23:03:11.059Z,28.51
2018-07-31T23:05:39.410Z,28.44
2018-07-31T23:08:07.796Z,28.42
2018-07-31T23:10:36.143Z,28.41
2018-07-31T23:13:04.480Z,28.34
2018-07-31T23:15:32.831Z,28.32
2018-07-31T23:18:01.176Z,28.34
2018-07-31T23:20:29.515Z,28.35
2018-07-31T23:22:57.887Z,28.28
2018-07-31T23:25:26.244Z,28.28
2018-07-31T23:27:54.587Z,28.25
2018-07-31T23:30:22.949Z,28.27
2018-07-31T23:32:51.313Z,28.24
2018-07-31T23:35:19.659Z,28.21
2018-07-31T23:37:48.030Z,28.25
2018-07-31T23:40:16.383Z,28.25
2018-07-31T23:42:44.723Z,28.19
2018-07-31T23:45:13.071Z,28.17
2018-07-31T23:47:41.418Z,28.18
2018-07-31T23:50:09.778Z,28.14
2018-07-31T23:52:38.176Z,28.16
2018-07-31T23:55:06.506Z,28.15
2018-07-31T23:57:34.863Z,28.07
